sensor_id;sensor_type;location;lat;lon;timestamp;P1;durP1;ratioP1;P2;durP2;ratioP2
23470;SDS011;11908;50.806;4.424;2023-02-28T00:00:25;11.48;;;8.27;;
23470;SDS011;11908;50.806;4.424;2023-02-28T00:02:51;13.45;;;8.13;;
23470;SDS011;11908;50.806;4.424;2023-02-28T00:05:17;10.40;;;7.78;;
23470;SDS011;11908;50.806;4.424;2023-02-28T00:07:45;11.60;;;7.68;;
23470;SDS011;11908;50.806;4.424;2023-02-28T00:10:15;12.65;;;8.15;;
23470;SDS011;11908;50.806;4.424;2023-02-28T00:12:49;13.02;;;7.90;;
23470;SDS011;11908;50.806;4.424;2023-02-28T00:15:16;13.15;;;7.43;;
23470;SDS011;11908;50.806;4.424;2023-02-28T00:17:42;13.05;;;7.70;;
23470;SDS011;11908;50.806;4.424;2023-02-28T00:20:08;13.73;;;7.97;;
23470;SDS011;11908;50.806;4.424;2023-02-28T00:22:35;14.88;;;8.25;;
23470;SDS011;11908;50.806;4.424;2023-02-28T00:25:02;11.38;;;7.85;;
23470;SDS011;11908;50.806;4.424;2023-02-28T00:27:29;11.30;;;7.95;;
23470;SDS011;11908;50.806;4.424;2023-02-28T00:29:55;12.57;;;8.10;;
23470;SDS011;11908;50.806;4.424;2023-02-28T00:32:24;12.27;;;8.57;;
23470;SDS011;11908;50.806;4.424;2023-02-28T00:34:50;12.18;;;7.95;;
23470;SDS011;11908;50.806;4.424;2023-02-28T00:37:15;14.68;;;8.77;;
23470;SDS011;11908;50.806;4.424;2023-02-28T00:39:41;15.57;;;8.45;;
23470;SDS011;11908;50.806;4.424;2023-02-28T00:42:07;14.18;;;7.57;;
23470;SDS011;11908;50.806;4.424;2023-02-28T00:44:35;12.88;;;7.70;;
23470;SDS011;11908;50.806;4.424;2023-02-28T00:47:01;11.13;;;7.88;;
23470;SDS011;11908;50.806;4.424;2023-02-28T00:49:26;16.30;;;7.85;;
23470;SDS011;11908;50.806;4.424;2023-02-28T00:51:53;14.77;;;7.80;;
23470;SDS011;11908;50.806;4.424;2023-02-28T00:54:20;12.38;;;7.78;;
23470;SDS011;11908;50.806;4.424;2023-02-28T00:56:46;12.40;;;7.68;;
23470;SDS011;11908;50.806;4.424;2023-02-28T00:59:13;12.95;;;7.85;;
23470;SDS011;11908;50.806;4.424;2023-02-28T01:01:39;11.88;;;7.38;;
23470;SDS011;11908;50.806;4.424;2023-02-28T01:04:05;8.02;;;6.50;;
23470;SDS011;11908;50.806;4.424;2023-02-28T01:06:31;14.48;;;7.13;;
23470;SDS011;11908;50.806;4.424;2023-02-28T01:08:57;9.57;;;7.45;;
23470;SDS011;11908;50.806;4.424;2023-02-28T01:11:23;8.50;;;6.40;;
23470;SDS011;11908;50.806;4.424;2023-02-28T01:13:49;10.55;;;7.05;;
23470;SDS011;11908;50.806;4.424;2023-02-28T01:16:14;11.20;;;6.85;;
23470;SDS011;11908;50.806;4.424;2023-02-28T01:18:40;14.98;;;7.20;;
23470;SDS011;11908;50.806;4.424;2023-02-28T01:21:07;12.20;;;6.65;;
23470;SDS011;11908;50.806;4.424;2023-02-28T01:23:35;13.43;;;7.25;;
23470;SDS011;11908;50.806;4.424;2023-02-28T01:26:07;15.02;;;7.57;;
23470;SDS011;11908;50.806;4.424;2023-02-28T01:28:35;12.60;;;7.15;;
23470;SDS011;11908;50.806;4.424;2023-02-28T01:31:01;12.73;;;7.10;;
23470;SDS011;11908;50.806;4.424;2023-02-28T01:33:27;9.38;;;6.70;;
23470;SDS011;11908;50.806;4.424;2023-02-28T01:36:03;10.57;;;6.75;;
23470;SDS011;11908;50.806;4.424;2023-02-28T01:38:35;16.00;;;7.32;;
23470;SDS011;11908;50.806;4.424;2023-02-28T01:41:05;10.75;;;6.93;;
23470;SDS011;11908;50.806;4.424;2023-02-28T01:43:39;12.80;;;7.63;;
23470;SDS011;11908;50.806;4.424;2023-02-28T01:46:18;11.40;;;7.20;;
23470;SDS011;11908;50.806;4.424;2023-02-28T01:51:26;13.25;;;7.32;;
23470;SDS011;11908;50.806;4.424;2023-02-28T01:53:58;11.10;;;7.55;;
23470;SDS011;11908;50.806;4.424;2023-02-28T01:56:29;10.13;;;7.15;;
23470;SDS011;11908;50.806;4.424;2023-02-28T01:58:57;9.02;;;7.20;;
23470;SDS011;11908;50.806;4.424;2023-02-28T02:01:23;10.27;;;7.38;;
23470;SDS011;11908;50.806;4.424;2023-02-28T02:03:51;10.73;;;7.78;;
23470;SDS011;11908;50.806;4.424;2023-02-28T02:06:22;10.27;;;7.82;;
23470;SDS011;11908;50.806;4.424;2023-02-28T02:08:55;13.18;;;8.02;;
23470;SDS011;11908;50.806;4.424;2023-02-28T02:11:21;13.25;;;7.75;;
23470;SDS011;11908;50.806;4.424;2023-02-28T02:13:55;11.25;;;7.85;;
23470;SDS011;11908;50.806;4.424;2023-02-28T02:19:38;11.85;;;7.75;;
23470;SDS011;11908;50.806;4.424;2023-02-28T02:22:29;13.10;;;7.90;;
23470;SDS011;11908;50.806;4.424;2023-02-28T02:25:12;12.80;;;8.38;;
23470;SDS011;11908;50.806;4.424;2023-02-28T02:36:35;13.75;;;8.40;;
23470;SDS011;11908;50.806;4.424;2023-02-28T02:39:18;11.00;;;9.00;;
23470;SDS011;11908;50.806;4.424;2023-02-28T02:41:54;12.48;;;9.13;;
23470;SDS011;11908;50.806;4.424;2023-02-28T02:44:30;17.15;;;8.25;;
23470;SDS011;11908;50.806;4.424;2023-02-28T02:47:12;11.88;;;8.50;;
23470;SDS011;11908;50.806;4.424;2023-02-28T02:49:42;10.30;;;8.55;;
23470;SDS011;11908;50.806;4.424;2023-02-28T02:52:17;11.52;;;8.70;;
23470;SDS011;11908;50.806;4.424;2023-02-28T02:54:46;15.05;;;8.77;;
23470;SDS011;11908;50.806;4.424;2023-02-28T02:57:21;14.55;;;9.07;;
23470;SDS011;11908;50.806;4.424;2023-02-28T02:59:50;15.20;;;8.55;;
23470;SDS011;11908;50.806;4.424;2023-02-28T03:02:19;11.10;;;8.50;;
23470;SDS011;11908;50.806;4.424;2023-02-28T03:04:49;15.80;;;9.02;;
23470;SDS011;11908;50.806;4.424;2023-02-28T03:07:18;12.10;;;8.95;;
23470;SDS011;11908;50.806;4.424;2023-02-28T03:09:51;15.50;;;9.13;;
23470;SDS011;11908;50.806;4.424;2023-02-28T03:12:17;17.38;;;9.68;;
23470;SDS011;11908;50.806;4.424;2023-02-28T03:14:48;15.88;;;9.15;;
23470;SDS011;11908;50.806;4.424;2023-02-28T03:22:37;16.02;;;9.90;;
23470;SDS011;11908;50.806;4.424;2023-02-28T03:25:22;16.63;;;10.00;;
23470;SDS011;11908;50.806;4.424;2023-02-28T03:30:52;13.88;;;9.77;;
23470;SDS011;11908;50.806;4.424;2023-02-28T03:33:24;14.52;;;9.60;;
23470;SDS011;11908;50.806;4.424;2023-02-28T03:35:58;16.02;;;9.70;;
23470;SDS011;11908;50.806;4.424;2023-02-28T03:38:38;15.07;;;8.98;;
23470;SDS011;11908;50.806;4.424;2023-02-28T03:43:38;16.60;;;10.10;;
23470;SDS011;11908;50.806;4.424;2023-02-28T03:46:09;18.17;;;9.82;;
23470;SDS011;11908;50.806;4.424;2023-02-28T03:48:42;17.85;;;10.10;;
23470;SDS011;11908;50.806;4.424;2023-02-28T03:51:12;15.73;;;10.35;;
23470;SDS011;11908;50.806;4.424;2023-02-28T03:53:44;13.55;;;9.18;;
23470;SDS011;11908;50.806;4.424;2023-02-28T03:56:46;15.77;;;10.05;;
23470;SDS011;11908;50.806;4.424;2023-02-28T03:59:14;16.55;;;10.48;;
23470;SDS011;11908;50.806;4.424;2023-02-28T04:01:45;16.03;;;11.27;;
23470;SDS011;11908;50.806;4.424;2023-02-28T04:04:13;14.50;;;10.75;;
23470;SDS011;11908;50.806;4.424;2023-02-28T04:06:40;14.48;;;10.60;;
23470;SDS011;11908;50.806;4.424;2023-02-28T04:09:09;16.08;;;10.98;;
23470;SDS011;11908;50.806;4.424;2023-02-28T04:11:37;15.55;;;10.85;;
23470;SDS011;11908;50.806;4.424;2023-02-28T04:14:05;18.83;;;11.52;;
23470;SDS011;11908;50.806;4.424;2023-02-28T04:16:32;15.52;;;10.95;;
23470;SDS011;11908;50.806;4.424;2023-02-28T04:18:59;17.52;;;11.75;;
23470;SDS011;11908;50.806;4.424;2023-02-28T04:21:30;19.60;;;11.32;;
23470;SDS011;11908;50.806;4.424;2023-02-28T04:24:00;18.13;;;11.57;;
23470;SDS011;11908;50.806;4.424;2023-02-28T04:26:30;20.50;;;12.30;;
23470;SDS011;11908;50.806;4.424;2023-02-28T04:28:58;18.42;;;11.98;;
23470;SDS011;11908;50.806;4.424;2023-02-28T04:31:24;17.60;;;11.70;;
23470;SDS011;11908;50.806;4.424;2023-02-28T04:33:52;19.70;;;11.68;;
23470;SDS011;11908;50.806;4.424;2023-02-28T04:36:18;20.42;;;12.38;;
23470;SDS011;11908;50.806;4.424;2023-02-28T04:38:44;19.67;;;11.63;;
23470;SDS011;11908;50.806;4.424;2023-02-28T04:41:13;23.10;;;12.43;;
23470;SDS011;11908;50.806;4.424;2023-02-28T04:43:38;21.95;;;12.10;;
23470;SDS011;11908;50.806;4.424;2023-02-28T04:46:04;16.13;;;12.02;;
23470;SDS011;11908;50.806;4.424;2023-02-28T04:48:31;19.73;;;11.85;;
23470;SDS011;11908;50.806;4.424;2023-02-28T04:51:03;19.65;;;12.25;;
23470;SDS011;11908;50.806;4.424;2023-02-28T04:53:30;20.95;;;11.75;;
23470;SDS011;11908;50.806;4.424;2023-02-28T04:55:56;19.00;;;12.27;;
23470;SDS011;11908;50.806;4.424;2023-02-28T04:58:23;20.75;;;12.60;;
23470;SDS011;11908;50.806;4.424;2023-02-28T05:00:49;16.10;;;12.88;;
23470;SDS011;11908;50.806;4.424;2023-02-28T05:03:16;15.43;;;12.55;;
23470;SDS011;11908;50.806;4.424;2023-02-28T05:05:41;16.67;;;12.88;;
23470;SDS011;11908;50.806;4.424;2023-02-28T05:08:07;20.23;;;12.90;;
23470;SDS011;11908;50.806;4.424;2023-02-28T05:10:34;18.33;;;12.07;;
23470;SDS011;11908;50.806;4.424;2023-02-28T05:13:00;15.20;;;11.88;;
23470;SDS011;11908;50.806;4.424;2023-02-28T05:15:26;18.65;;;12.85;;
23470;SDS011;11908;50.806;4.424;2023-02-28T05:17:52;15.88;;;10.98;;
23470;SDS011;11908;50.806;4.424;2023-02-28T05:20:18;16.10;;;12.32;;
23470;SDS011;11908;50.806;4.424;2023-02-28T05:22:43;18.88;;;12.30;;
23470;SDS011;11908;50.806;4.424;2023-02-28T05:25:16;21.00;;;12.63;;
23470;SDS011;11908;50.806;4.424;2023-02-28T05:27:44;21.27;;;11.85;;
23470;SDS011;11908;50.806;4.424;2023-02-28T05:30:10;18.30;;;11.80;;
23470;SDS011;11908;50.806;4.424;2023-02-28T05:32:37;20.40;;;12.30;;
23470;SDS011;11908;50.806;4.424;2023-02-28T05:35:07;17.23;;;12.48;;
23470;SDS011;11908;50.806;4.424;2023-02-28T05:37:34;17.20;;;11.98;;
23470;SDS011;11908;50.806;4.424;2023-02-28T05:39:59;20.38;;;12.93;;
23470;SDS011;11908;50.806;4.424;2023-02-28T05:42:26;21.48;;;13.02;;
23470;SDS011;11908;50.806;4.424;2023-02-28T05:44:51;22.00;;;13.50;;
23470;SDS011;11908;50.806;4.424;2023-02-28T05:47:17;20.17;;;12.95;;
23470;SDS011;11908;50.806;4.424;2023-02-28T05:49:43;16.92;;;12.57;;
23470;SDS011;11908;50.806;4.424;2023-02-28T05:52:08;18.27;;;13.35;;
23470;SDS011;11908;50.806;4.424;2023-02-28T05:54:34;17.95;;;12.77;;
23470;SDS011;11908;50.806;4.424;2023-02-28T05:56:59;20.75;;;13.00;;
23470;SDS011;11908;50.806;4.424;2023-02-28T05:59:25;19.80;;;13.15;;
23470;SDS011;11908;50.806;4.424;2023-02-28T06:01:51;22.85;;;13.38;;
23470;SDS011;11908;50.806;4.424;2023-02-28T06:04:19;16.73;;;12.73;;
23470;SDS011;11908;50.806;4.424;2023-02-28T06:06:46;19.58;;;12.65;;
23470;SDS011;11908;50.806;4.424;2023-02-28T06:09:12;17.65;;;12.60;;
23470;SDS011;11908;50.806;4.424;2023-02-28T06:11:38;16.15;;;11.80;;
23470;SDS011;11908;50.806;4.424;2023-02-28T06:14:04;18.50;;;12.55;;
23470;SDS011;11908;50.806;4.424;2023-02-28T06:16:31;15.98;;;11.73;;
23470;SDS011;11908;50.806;4.424;2023-02-28T06:18:59;21.90;;;12.30;;
23470;SDS011;11908;50.806;4.424;2023-02-28T06:21:26;23.00;;;12.20;;
23470;SDS011;11908;50.806;4.424;2023-02-28T06:23:55;14.68;;;11.10;;
23470;SDS011;11908;50.806;4.424;2023-02-28T06:26:22;22.60;;;13.75;;
23470;SDS011;11908;50.806;4.424;2023-02-28T06:28:50;19.77;;;12.25;;
23470;SDS011;11908;50.806;4.424;2023-02-28T06:31:16;16.35;;;12.15;;
23470;SDS011;11908;50.806;4.424;2023-02-28T06:33:43;19.77;;;12.20;;
23470;SDS011;11908;50.806;4.424;2023-02-28T06:36:10;18.20;;;11.68;;
23470;SDS011;11908;50.806;4.424;2023-02-28T06:38:37;16.85;;;11.68;;
23470;SDS011;11908;50.806;4.424;2023-02-28T06:41:03;19.92;;;11.65;;
23470;SDS011;11908;50.806;4.424;2023-02-28T06:43:31;16.58;;;11.20;;
23470;SDS011;11908;50.806;4.424;2023-02-28T06:45:59;17.23;;;11.73;;
23470;SDS011;11908;50.806;4.424;2023-02-28T06:48:27;18.85;;;11.85;;
23470;SDS011;11908;50.806;4.424;2023-02-28T06:51:03;16.90;;;11.07;;
23470;SDS011;11908;50.806;4.424;2023-02-28T06:53:33;14.43;;;10.50;;
23470;SDS011;11908;50.806;4.424;2023-02-28T06:55:59;14.88;;;10.35;;
23470;SDS011;11908;50.806;4.424;2023-02-28T06:58:30;15.85;;;10.50;;
23470;SDS011;11908;50.806;4.424;2023-02-28T07:00:56;14.82;;;9.20;;
23470;SDS011;11908;50.806;4.424;2023-02-28T07:03:22;14.10;;;9.35;;
23470;SDS011;11908;50.806;4.424;2023-02-28T07:05:48;13.73;;;9.32;;
23470;SDS011;11908;50.806;4.424;2023-02-28T07:08:13;12.55;;;9.35;;
23470;SDS011;11908;50.806;4.424;2023-02-28T07:10:39;12.40;;;8.93;;
23470;SDS011;11908;50.806;4.424;2023-02-28T07:13:06;15.05;;;9.57;;
23470;SDS011;11908;50.806;4.424;2023-02-28T07:15:32;16.70;;;9.93;;
23470;SDS011;11908;50.806;4.424;2023-02-28T07:17:58;17.92;;;10.52;;
23470;SDS011;11908;50.806;4.424;2023-02-28T07:20:23;13.38;;;9.98;;
23470;SDS011;11908;50.806;4.424;2023-02-28T07:22:50;14.57;;;9.70;;
23470;SDS011;11908;50.806;4.424;2023-02-28T07:25:25;16.13;;;9.40;;
23470;SDS011;11908;50.806;4.424;2023-02-28T07:27:53;18.85;;;10.00;;
23470;SDS011;11908;50.806;4.424;2023-02-28T07:30:19;17.50;;;9.13;;
23470;SDS011;11908;50.806;4.424;2023-02-28T07:32:45;13.68;;;9.15;;
23470;SDS011;11908;50.806;4.424;2023-02-28T07:35:11;13.48;;;9.38;;
23470;SDS011;11908;50.806;4.424;2023-02-28T07:37:37;14.38;;;9.20;;
23470;SDS011;11908;50.806;4.424;2023-02-28T07:40:03;12.60;;;8.75;;
23470;SDS011;11908;50.806;4.424;2023-02-28T07:42:33;17.27;;;9.00;;
23470;SDS011;11908;50.806;4.424;2023-02-28T07:45:00;12.80;;;8.73;;
23470;SDS011;11908;50.806;4.424;2023-02-28T07:47:26;17.15;;;9.27;;
23470;SDS011;11908;50.806;4.424;2023-02-28T07:49:54;12.15;;;8.45;;
23470;SDS011;11908;50.806;4.424;2023-02-28T07:52:19;21.70;;;8.05;;
23470;SDS011;11908;50.806;4.424;2023-02-28T07:54:45;14.23;;;8.20;;
23470;SDS011;11908;50.806;4.424;2023-02-28T07:57:10;14.68;;;8.65;;
23470;SDS011;11908;50.806;4.424;2023-02-28T07:59:36;13.48;;;8.02;;
23470;SDS011;11908;50.806;4.424;2023-02-28T08:02:02;14.25;;;8.50;;
23470;SDS011;11908;50.806;4.424;2023-02-28T08:04:27;9.95;;;7.43;;
23470;SDS011;11908;50.806;4.424;2023-02-28T08:06:57;12.48;;;7.32;;
23470;SDS011;11908;50.806;4.424;2023-02-28T08:09:22;9.60;;;6.88;;
23470;SDS011;11908;50.806;4.424;2023-02-28T08:11:48;9.30;;;7.45;;
23470;SDS011;11908;50.806;4.424;2023-02-28T08:14:14;14.63;;;7.47;;
23470;SDS011;11908;50.806;4.424;2023-02-28T08:16:39;12.32;;;7.07;;
23470;SDS011;11908;50.806;4.424;2023-02-28T08:19:05;10.55;;;7.10;;
23470;SDS011;11908;50.806;4.424;2023-02-28T08:21:31;10.90;;;6.28;;
23470;SDS011;11908;50.806;4.424;2023-02-28T08:23:57;8.95;;;6.10;;
23470;SDS011;11908;50.806;4.424;2023-02-28T08:26:23;10.45;;;7.07;;
23470;SDS011;11908;50.806;4.424;2023-02-28T08:28:49;14.13;;;6.97;;
23470;SDS011;11908;50.806;4.424;2023-02-28T08:31:16;8.48;;;6.40;;
23470;SDS011;11908;50.806;4.424;2023-02-28T08:33:42;9.93;;;6.00;;
23470;SDS011;11908;50.806;4.424;2023-02-28T08:36:09;8.80;;;6.13;;
23470;SDS011;11908;50.806;4.424;2023-02-28T08:38:36;13.57;;;6.03;;
23470;SDS011;11908;50.806;4.424;2023-02-28T08:41:03;12.55;;;6.13;;
23470;SDS011;11908;50.806;4.424;2023-02-28T08:43:32;8.38;;;6.18;;
23470;SDS011;11908;50.806;4.424;2023-02-28T08:45:58;9.85;;;6.28;;
23470;SDS011;11908;50.806;4.424;2023-02-28T08:48:26;8.25;;;5.80;;
23470;SDS011;11908;50.806;4.424;2023-02-28T08:53:22;9.02;;;5.53;;
23470;SDS011;11908;50.806;4.424;2023-02-28T08:55:55;8.90;;;5.35;;
23470;SDS011;11908;50.806;4.424;2023-02-28T08:58:28;6.93;;;4.93;;
23470;SDS011;11908;50.806;4.424;2023-02-28T09:00:54;7.35;;;4.90;;
23470;SDS011;11908;50.806;4.424;2023-02-28T09:03:20;9.25;;;4.60;;
23470;SDS011;11908;50.806;4.424;2023-02-28T09:05:57;10.38;;;4.80;;
23470;SDS011;11908;50.806;4.424;2023-02-28T09:08:25;9.05;;;4.90;;
23470;SDS011;11908;50.806;4.424;2023-02-28T09:10:52;6.65;;;4.15;;
23470;SDS011;11908;50.806;4.424;2023-02-28T09:13:19;5.75;;;3.75;;
23470;SDS011;11908;50.806;4.424;2023-02-28T09:15:45;7.88;;;4.40;;
23470;SDS011;11908;50.806;4.424;2023-02-28T09:18:11;7.35;;;4.10;;
23470;SDS011;11908;50.806;4.424;2023-02-28T09:20:38;6.90;;;4.22;;
23470;SDS011;11908;50.806;4.424;2023-02-28T09:23:05;5.25;;;3.78;;
23470;SDS011;11908;50.806;4.424;2023-02-28T09:25:31;6.55;;;3.95;;
23470;SDS011;11908;50.806;4.424;2023-02-28T09:27:57;9.13;;;4.40;;
23470;SDS011;11908;50.806;4.424;2023-02-28T09:30:22;6.93;;;4.55;;
23470;SDS011;11908;50.806;4.424;2023-02-28T09:32:48;10.00;;;6.28;;
23470;SDS011;11908;50.806;4.424;2023-02-28T09:35:20;7.38;;;4.20;;
23470;SDS011;11908;50.806;4.424;2023-02-28T09:37:48;7.38;;;4.90;;
23470;SDS011;11908;50.806;4.424;2023-02-28T09:40:14;4.53;;;3.65;;
23470;SDS011;11908;50.806;4.424;2023-02-28T09:42:43;8.00;;;3.03;;
23470;SDS011;11908;50.806;4.424;2023-02-28T09:45:23;5.45;;;3.47;;
23470;SDS011;11908;50.806;4.424;2023-02-28T09:47:54;4.88;;;3.20;;
23470;SDS011;11908;50.806;4.424;2023-02-28T09:52:56;6.22;;;3.38;;
23470;SDS011;11908;50.806;4.424;2023-02-28T09:55:26;8.25;;;3.45;;
23470;SDS011;11908;50.806;4.424;2023-02-28T09:57:58;4.88;;;2.88;;
23470;SDS011;11908;50.806;4.424;2023-02-28T10:00:39;4.75;;;3.30;;
23470;SDS011;11908;50.806;4.424;2023-02-28T10:05:58;4.10;;;3.13;;
23470;SDS011;11908;50.806;4.424;2023-02-28T10:11:28;5.43;;;2.88;;
23470;SDS011;11908;50.806;4.424;2023-02-28T10:14:10;5.10;;;3.17;;
23470;SDS011;11908;50.806;4.424;2023-02-28T10:16:45;5.43;;;3.22;;
23470;SDS011;11908;50.806;4.424;2023-02-28T10:19:22;5.68;;;2.58;;
23470;SDS011;11908;50.806;4.424;2023-02-28T10:22:12;5.35;;;2.95;;
23470;SDS011;11908;50.806;4.424;2023-02-28T10:24:46;4.97;;;2.70;;
23470;SDS011;11908;50.806;4.424;2023-02-28T10:27:21;3.35;;;2.50;;
23470;SDS011;11908;50.806;4.424;2023-02-28T10:29:52;3.65;;;1.88;;
23470;SDS011;11908;50.806;4.424;2023-02-28T10:32:21;4.40;;;2.08;;
23470;SDS011;11908;50.806;4.424;2023-02-28T10:34:52;3.92;;;2.00;;
23470;SDS011;11908;50.806;4.424;2023-02-28T10:37:23;3.50;;;2.08;;
23470;SDS011;11908;50.806;4.424;2023-02-28T10:39:52;4.63;;;1.80;;
23470;SDS011;11908;50.806;4.424;2023-02-28T10:44:44;3.03;;;2.10;;
23470;SDS011;11908;50.806;4.424;2023-02-28T10:47:16;3.17;;;1.98;;
23470;SDS011;11908;50.806;4.424;2023-02-28T10:49:48;4.78;;;2.38;;
23470;SDS011;11908;50.806;4.424;2023-02-28T10:52:32;2.83;;;2.45;;
23470;SDS011;11908;50.806;4.424;2023-02-28T10:55:24;6.10;;;2.47;;
23470;SDS011;11908;50.806;4.424;2023-02-28T10:57:51;3.65;;;2.30;;
23470;SDS011;11908;50.806;4.424;2023-02-28T11:00:21;4.10;;;1.92;;
23470;SDS011;11908;50.806;4.424;2023-02-28T11:02:48;3.05;;;2.35;;
23470;SDS011;11908;50.806;4.424;2023-02-28T11:05:30;4.28;;;2.45;;
23470;SDS011;11908;50.806;4.424;2023-02-28T11:08:11;3.25;;;2.35;;
23470;SDS011;11908;50.806;4.424;2023-02-28T11:10:43;2.83;;;2.20;;
23470;SDS011;11908;50.806;4.424;2023-02-28T11:13:17;2.63;;;2.13;;
23470;SDS011;11908;50.806;4.424;2023-02-28T11:15:52;3.45;;;2.17;;
23470;SDS011;11908;50.806;4.424;2023-02-28T11:18:21;2.40;;;1.75;;
23470;SDS011;11908;50.806;4.424;2023-02-28T11:20:56;4.45;;;2.30;;
23470;SDS011;11908;50.806;4.424;2023-02-28T11:23:28;4.28;;;2.40;;
23470;SDS011;11908;50.806;4.424;2023-02-28T11:25:56;2.95;;;2.10;;
23470;SDS011;11908;50.806;4.424;2023-02-28T11:33:59;4.05;;;2.50;;
23470;SDS011;11908;50.806;4.424;2023-02-28T11:36:26;7.20;;;2.63;;
23470;SDS011;11908;50.806;4.424;2023-02-28T11:38:58;2.92;;;2.38;;
23470;SDS011;11908;50.806;4.424;2023-02-28T12:02:59;3.63;;;2.65;;
23470;SDS011;11908;50.806;4.424;2023-02-28T12:05:34;8.27;;;5.07;;
23470;SDS011;11908;50.806;4.424;2023-02-28T12:10:52;3.45;;;2.70;;
23470;SDS011;11908;50.806;4.424;2023-02-28T12:13:45;4.57;;;2.42;;
23470;SDS011;11908;50.806;4.424;2023-02-28T12:16:25;5.25;;;2.50;;
23470;SDS011;11908;50.806;4.424;2023-02-28T12:27:19;2.45;;;2.10;;
23470;SDS011;11908;50.806;4.424;2023-02-28T12:29:49;3.28;;;2.08;;
23470;SDS011;11908;50.806;4.424;2023-02-28T12:37:41;10.38;;;5.47;;
23470;SDS011;11908;50.806;4.424;2023-02-28T12:43:34;4.03;;;2.50;;
23470;SDS011;11908;50.806;4.424;2023-02-28T12:46:11;3.30;;;2.50;;
23470;SDS011;11908;50.806;4.424;2023-02-28T12:48:55;7.90;;;2.78;;
23470;SDS011;11908;50.806;4.424;2023-02-28T12:51:24;4.55;;;2.65;;
23470;SDS011;11908;50.806;4.424;2023-02-28T12:56:29;4.47;;;2.63;;
23470;SDS011;11908;50.806;4.424;2023-02-28T13:04:43;4.32;;;2.75;;
23470;SDS011;11908;50.806;4.424;2023-02-28T13:10:15;3.55;;;2.58;;
23470;SDS011;11908;50.806;4.424;2023-02-28T13:13:02;3.25;;;2.45;;
23470;SDS011;11908;50.806;4.424;2023-02-28T13:15:28;3.80;;;2.55;;
23470;SDS011;11908;50.806;4.424;2023-02-28T13:17:55;2.90;;;2.50;;
23470;SDS011;11908;50.806;4.424;2023-02-28T13:22:59;4.10;;;3.05;;
23470;SDS011;11908;50.806;4.424;2023-02-28T13:28:11;4.45;;;2.60;;
23470;SDS011;11908;50.806;4.424;2023-02-28T13:33:33;3.95;;;2.83;;
23470;SDS011;11908;50.806;4.424;2023-02-28T13:36:30;3.78;;;2.83;;
23470;SDS011;11908;50.806;4.424;2023-02-28T13:39:00;3.33;;;2.83;;
23470;SDS011;11908;50.806;4.424;2023-02-28T13:41:46;3.03;;;2.70;;
23470;SDS011;11908;50.806;4.424;2023-02-28T13:54:33;5.40;;;2.95;;
23470;SDS011;11908;50.806;4.424;2023-02-28T14:05:31;3.55;;;2.60;;
23470;SDS011;11908;50.806;4.424;2023-02-28T14:07:59;3.15;;;2.45;;
23470;SDS011;11908;50.806;4.424;2023-02-28T14:10:50;3.33;;;2.72;;
23470;SDS011;11908;50.806;4.424;2023-02-28T14:13:38;3.92;;;2.95;;
23470;SDS011;11908;50.806;4.424;2023-02-28T14:16:09;4.55;;;2.60;;
23470;SDS011;11908;50.806;4.424;2023-02-28T14:18:37;7.82;;;3.10;;
23470;SDS011;11908;50.806;4.424;2023-02-28T14:24:06;6.28;;;3.03;;
23470;SDS011;11908;50.806;4.424;2023-02-28T14:27:05;4.20;;;3.17;;
23470;SDS011;11908;50.806;4.424;2023-02-28T14:32:35;3.50;;;2.67;;
23470;SDS011;11908;50.806;4.424;2023-02-28T14:37:50;6.88;;;2.67;;
23470;SDS011;11908;50.806;4.424;2023-02-28T14:40:20;5.18;;;2.92;;
23470;SDS011;11908;50.806;4.424;2023-02-28T14:42:48;3.42;;;2.70;;
23470;SDS011;11908;50.806;4.424;2023-02-28T14:45:21;5.18;;;3.30;;
23470;SDS011;11908;50.806;4.424;2023-02-28T14:47:49;3.92;;;3.00;;
23470;SDS011;11908;50.806;4.424;2023-02-28T14:50:20;4.97;;;2.83;;
23470;SDS011;11908;50.806;4.424;2023-02-28T14:52:54;5.63;;;2.80;;
23470;SDS011;11908;50.806;4.424;2023-02-28T14:55:25;4.70;;;3.00;;
23470;SDS011;11908;50.806;4.424;2023-02-28T14:57:57;5.45;;;3.33;;
23470;SDS011;11908;50.806;4.424;2023-02-28T15:00:28;4.03;;;3.00;;
23470;SDS011;11908;50.806;4.424;2023-02-28T15:03:28;4.97;;;3.35;;
23470;SDS011;11908;50.806;4.424;2023-02-28T15:06:00;3.20;;;2.90;;
23470;SDS011;11908;50.806;4.424;2023-02-28T15:08:28;5.13;;;3.28;;
23470;SDS011;11908;50.806;4.424;2023-02-28T15:11:01;5.05;;;3.30;;
23470;SDS011;11908;50.806;4.424;2023-02-28T15:16:03;4.65;;;3.25;;
23470;SDS011;11908;50.806;4.424;2023-02-28T15:18:41;4.88;;;3.28;;
23470;SDS011;11908;50.806;4.424;2023-02-28T15:21:15;3.63;;;3.10;;
23470;SDS011;11908;50.806;4.424;2023-02-28T15:23:42;7.88;;;2.75;;
23470;SDS011;11908;50.806;4.424;2023-02-28T15:26:13;4.28;;;2.75;;
23470;SDS011;11908;50.806;4.424;2023-02-28T15:28:42;4.65;;;3.17;;
23470;SDS011;11908;50.806;4.424;2023-02-28T15:31:19;5.72;;;3.53;;
23470;SDS011;11908;50.806;4.424;2023-02-28T15:33:52;4.70;;;3.33;;
23470;SDS011;11908;50.806;4.424;2023-02-28T15:36:19;5.82;;;3.63;;
23470;SDS011;11908;50.806;4.424;2023-02-28T15:38:50;7.82;;;3.60;;
23470;SDS011;11908;50.806;4.424;2023-02-28T15:41:27;7.47;;;3.92;;
23470;SDS011;11908;50.806;4.424;2023-02-28T15:46:57;7.40;;;3.30;;
23470;SDS011;11908;50.806;4.424;2023-02-28T15:49:29;5.32;;;3.40;;
23470;SDS011;11908;50.806;4.424;2023-02-28T15:52:17;3.75;;;3.35;;
23470;SDS011;11908;50.806;4.424;2023-02-28T15:54:47;4.53;;;3.35;;
23470;SDS011;11908;50.806;4.424;2023-02-28T15:57:15;6.70;;;3.13;;
23470;SDS011;11908;50.806;4.424;2023-02-28T15:59:49;4.57;;;3.30;;
23470;SDS011;11908;50.806;4.424;2023-02-28T16:02:20;4.38;;;3.33;;
23470;SDS011;11908;50.806;4.424;2023-02-28T16:05:01;5.97;;;3.22;;
23470;SDS011;11908;50.806;4.424;2023-02-28T16:07:27;3.72;;;3.25;;
23470;SDS011;11908;50.806;4.424;2023-02-28T16:09:53;4.85;;;3.83;;
23470;SDS011;11908;50.806;4.424;2023-02-28T16:12:20;6.80;;;3.35;;
23470;SDS011;11908;50.806;4.424;2023-02-28T16:14:50;5.30;;;3.17;;
23470;SDS011;11908;50.806;4.424;2023-02-28T16:17:22;5.60;;;3.22;;
23470;SDS011;11908;50.806;4.424;2023-02-28T16:19:50;8.32;;;3.58;;
23470;SDS011;11908;50.806;4.424;2023-02-28T16:22:16;5.53;;;3.33;;
23470;SDS011;11908;50.806;4.424;2023-02-28T16:24:41;4.25;;;3.50;;
23470;SDS011;11908;50.806;4.424;2023-02-28T16:27:10;8.95;;;3.28;;
23470;SDS011;11908;50.806;4.424;2023-02-28T16:29:56;4.13;;;3.30;;
23470;SDS011;11908;50.806;4.424;2023-02-28T16:32:22;5.82;;;3.13;;
23470;SDS011;11908;50.806;4.424;2023-02-28T16:34:47;5.80;;;3.60;;
23470;SDS011;11908;50.806;4.424;2023-02-28T16:37:14;5.53;;;3.85;;
23470;SDS011;11908;50.806;4.424;2023-02-28T16:39:42;4.13;;;3.28;;
23470;SDS011;11908;50.806;4.424;2023-02-28T16:42:15;4.53;;;2.88;;
23470;SDS011;11908;50.806;4.424;2023-02-28T16:44:46;6.97;;;3.15;;
23470;SDS011;11908;50.806;4.424;2023-02-28T16:47:12;4.57;;;3.20;;
23470;SDS011;11908;50.806;4.424;2023-02-28T16:49:38;4.80;;;3.38;;
23470;SDS011;11908;50.806;4.424;2023-02-28T16:52:07;4.10;;;3.20;;
23470;SDS011;11908;50.806;4.424;2023-02-28T16:54:33;7.47;;;3.10;;
23470;SDS011;11908;50.806;4.424;2023-02-28T16:56:58;5.82;;;3.40;;
23470;SDS011;11908;50.806;4.424;2023-02-28T16:59:24;6.47;;;4.05;;
23470;SDS011;11908;50.806;4.424;2023-02-28T17:01:51;4.22;;;3.35;;
23470;SDS011;11908;50.806;4.424;2023-02-28T17:04:18;4.55;;;3.38;;
23470;SDS011;11908;50.806;4.424;2023-02-28T17:06:43;8.80;;;3.63;;
23470;SDS011;11908;50.806;4.424;2023-02-28T17:09:20;7.63;;;3.70;;
23470;SDS011;11908;50.806;4.424;2023-02-28T17:11:47;7.47;;;4.38;;